Mechanicsville, Virginia
Current Conditions -  °F | °C
As of 10:54 AM on Thursday 18 Dec 2014 (Local Time) from KOFP Reporting Station
Clear Clear  
Wind Chill: 37°   Ceiling: Unl
Heat Index: 37°   Visibility: 10mi
Dew Point: 22°   Wind: 3mph
Humidity: 54%   Direction: 350°N
Pressure: 30.19"   Gusts: NA
Location:  37.61°N, 77.38°W
Report Text: KOFP 181554Z AUTO 35003KT 10SM CLR 03/M06 A3019 RMK AO2 SLP224 T00281056
Loading
Personal Weather Stations






























Interactive Weather Map New forecast layout! Learn more

10-Day Weather Forecast

Advertisements
Track Severe Weather on mobile